createdAt,value
2024-02-13T00:01:41.938Z,99632.25
2024-02-13T00:05:44.951Z,99628.44
2024-02-13T00:09:47.193Z,99622.75
2024-02-13T00:13:49.334Z,99635.34
2024-02-13T00:17:52.719Z,99638.88
2024-02-13T00:21:54.875Z,99633.59
2024-02-13T00:25:56.966Z,99649.25
2024-02-13T00:29:59.031Z,99644.34
2024-02-13T00:34:00.783Z,99642.41
2024-02-13T00:38:02.820Z,99655.97
2024-02-13T00:42:06.532Z,99659.09
2024-02-13T00:46:10.674Z,99653.00
2024-02-13T00:50:15.869Z,99660.81
2024-02-13T00:54:18.229Z,99677.88
2024-02-13T00:58:20.606Z,99665.75
2024-02-13T01:02:23.856Z,99679.16
2024-02-13T01:06:25.985Z,99682.34
2024-02-13T01:10:28.032Z,99688.09
2024-02-13T01:14:30.070Z,99701.81
2024-02-13T01:18:33.828Z,99699.63
2024-02-13T01:22:36.544Z,99707.72
2024-02-13T01:26:39.119Z,99699.63
2024-02-13T01:30:41.353Z,99699.63
2024-02-13T01:34:43.835Z,99707.16
2024-02-13T01:38:46.092Z,99717.84
2024-02-13T01:42:50.611Z,99730.88
2024-02-13T01:46:53.722Z,99724.84
2024-02-13T01:51:01.856Z,99716.47
2024-02-13T01:55:04.268Z,99719.13
2024-02-13T01:59:06.996Z,99733.53
2024-02-13T02:03:15.980Z,99723.16
2024-02-13T02:07:19.010Z,99738.16
2024-02-13T02:11:21.277Z,99738.69
2024-02-13T02:15:23.303Z,99739.31
2024-02-13T02:19:25.466Z,99728.84
2024-02-13T02:23:28.037Z,99754.16
2024-02-13T02:27:30.289Z,99742.41
2024-02-13T02:31:32.626Z,99743.44
2024-02-13T02:35:35.026Z,99769.06
2024-02-13T02:39:37.110Z,99772.03
2024-02-13T02:43:39.360Z,99769.25
2024-02-13T02:47:41.502Z,99775.09
2024-02-13T02:51:44.921Z,99766.59
2024-02-13T02:55:46.996Z,99778.72
2024-02-13T02:59:49.271Z,99802.50
2024-02-13T03:03:51.634Z,99799.56
2024-02-13T03:07:53.842Z,99792.13
2024-02-13T03:11:56.732Z,99798.28
2024-02-13T03:15:59.016Z,99786.56
2024-02-13T03:20:02.177Z,99801.41
2024-02-13T03:24:06.356Z,99812.16
2024-02-13T03:28:08.824Z,99807.56
2024-02-13T03:32:11.047Z,99803.81
2024-02-13T03:36:17.932Z,99822.94
2024-02-13T03:40:20.195Z,99817.38
2024-02-13T03:44:23.884Z,99846.19
2024-02-13T03:48:26.281Z,99851.75
2024-02-13T03:52:28.526Z,99853.03
2024-02-13T03:56:30.719Z,99849.69
2024-02-13T04:00:34.032Z,99859.06
2024-02-13T04:04:36.586Z,99880.88
2024-02-13T04:08:40.330Z,99876.38
2024-02-13T04:12:42.447Z,99877.22
2024-02-13T04:16:45.471Z,99908.41
2024-02-13T04:20:47.698Z,99896.81
2024-02-13T04:24:50.305Z,99914.28
2024-02-13T04:28:52.391Z,99912.03
2024-02-13T04:32:54.674Z,99914.56
2024-02-13T04:36:56.787Z,99915.78
2024-02-13T04:40:58.973Z,99923.22
2024-02-13T04:45:01.825Z,99921.66
2024-02-13T04:49:04.065Z,99941.25
2024-02-13T04:53:06.358Z,99928.34
2024-02-13T04:57:08.381Z,99953.53
2024-02-13T05:01:13.330Z,99963.47
2024-02-13T05:05:34.605Z,99956.31
2024-02-13T05:09:36.968Z,99959.69
2024-02-13T05:13:40.066Z,99966.34
2024-02-13T05:17:42.733Z,99978.53
2024-02-13T05:21:44.967Z,99971.50
2024-02-13T05:25:46.886Z,99974.81
2024-02-13T05:29:49.448Z,99993.69
2024-02-13T05:33:53.402Z,100010.72
2024-02-13T05:37:55.747Z,100013.91
2024-02-13T05:41:58.869Z,100007.31
2024-02-13T05:46:01.140Z,100026.28
2024-02-13T05:50:05.112Z,100024.91
2024-02-13T05:54:07.583Z,100022.78
2024-02-13T05:58:10.096Z,100054.00
2024-02-13T06:02:12.152Z,100057.22
2024-02-13T06:06:15.943Z,100064.22
2024-02-13T06:10:18.265Z,100077.81
2024-02-13T06:14:20.497Z,100085.72
2024-02-13T06:18:24.175Z,100110.69
2024-02-13T06:22:26.499Z,100100.75
2024-02-13T06:26:28.802Z,100107.88
2024-02-13T06:30:33.182Z,100123.41
2024-02-13T06:34:37.670Z,100122.84
2024-02-13T06:38:39.914Z,100131.25
2024-02-13T06:42:42.200Z,100139.41
2024-02-13T06:46:44.354Z,100139.06
2024-02-13T06:50:46.504Z,100150.19
2024-02-13T06:54:50.788Z,100156.06
2024-02-13T06:58:53.396Z,100178.22
2024-02-13T07:02:56.183Z,100181.50
2024-02-13T07:07:08.762Z,100181.50
2024-02-13T07:11:20.846Z,100185.97
2024-02-13T07:15:23.303Z,100177.81
2024-02-13T07:19:26.784Z,100195.50
2024-02-13T07:23:29.196Z,100210.47
2024-02-13T07:27:31.704Z,100188.03
2024-02-13T07:31:36.743Z,100203.56
2024-02-13T07:35:39.096Z,100199.50
2024-02-13T07:39:41.572Z,100212.72
2024-02-13T07:43:43.853Z,100226.91
2024-02-13T07:47:46.133Z,100227.63
2024-02-13T07:51:49.900Z,100224.88
2024-02-13T07:55:52.086Z,100233.28
2024-02-13T07:59:57.304Z,100237.38
2024-02-13T08:03:59.975Z,100233.16
2024-02-13T08:08:03.772Z,100246.53
2024-02-13T08:12:07.970Z,100244.50
2024-02-13T08:16:12.476Z,100262.06
2024-02-13T08:20:14.805Z,100254.84
2024-02-13T08:24:19.349Z,100253.22
2024-02-13T08:28:23.711Z,100253.81
2024-02-13T08:32:28.157Z,100250.19
2024-02-13T08:36:30.907Z,100245.78
2024-02-13T08:40:32.981Z,100258.28
2024-02-13T08:44:36.169Z,100266.56
2024-02-13T08:48:38.783Z,100284.94
2024-02-13T08:52:41.066Z,100260.75
2024-02-13T08:56:44.025Z,100276.75
2024-02-13T09:00:46.376Z,100266.50
2024-02-13T09:04:51.417Z,100277.56
2024-02-13T09:08:53.357Z,100283.03
2024-02-13T09:12:55.692Z,100276.59
2024-02-13T09:17:00.458Z,100304.47
2024-02-13T09:21:02.949Z,100307.72
2024-02-13T09:25:05.823Z,100300.72
2024-02-13T09:29:07.925Z,100301.53
2024-02-13T09:33:11.078Z,100324.97
2024-02-13T09:37:14.263Z,100321.72
2024-02-13T09:41:16.484Z,100333.00
2024-02-13T09:45:18.995Z,100340.75
2024-02-13T09:49:23.218Z,100335.22
2024-02-13T09:53:30.264Z,100351.81
2024-02-13T09:57:32.566Z,100357.97
2024-02-13T10:01:35.470Z,100363.16
2024-02-13T10:05:37.780Z,100353.22
2024-02-13T10:09:39.912Z,100359.38
2024-02-13T10:13:47.039Z,100368.66
2024-02-13T10:17:52.475Z,100371.88
2024-02-13T10:22:06.713Z,100370.59
2024-02-13T10:26:09.595Z,100379.81
2024-02-13T10:30:21.337Z,100390.47
2024-02-13T10:34:23.432Z,100400.72
2024-02-13T10:38:29.118Z,100386.84
2024-02-13T10:42:38.525Z,100393.19
2024-02-13T10:46:41.955Z,100401.50
2024-02-13T10:50:44.851Z,100389.16
2024-02-13T10:54:49.411Z,100403.00
2024-02-13T10:58:51.682Z,100400.91
2024-02-13T11:02:55.754Z,100405.78
2024-02-13T11:06:58.219Z,100404.38
2024-02-13T11:11:08.180Z,100418.53
2024-02-13T11:15:15.260Z,100412.06
2024-02-13T11:19:23.791Z,100416.69
2024-02-13T11:23:29.919Z,100422.53
2024-02-13T11:27:32.765Z,100422.34
2024-02-13T11:31:35.306Z,100428.88
2024-02-13T11:35:58.073Z,100425.81
2024-02-13T11:40:00.536Z,100427.09
2024-02-13T11:44:12.397Z,100436.66
2024-02-13T11:48:18.353Z,100428.34
2024-02-13T11:52:22.236Z,100445.38
2024-02-13T11:56:24.463Z,100463.66
2024-02-13T12:00:27.421Z,100470.78
2024-02-13T12:04:30.923Z,100467.66
2024-02-13T12:08:41.906Z,100458.75
2024-02-13T12:12:44.236Z,100464.59
2024-02-13T12:16:46.470Z,100475.81
2024-02-13T12:20:51.121Z,100465.38
2024-02-13T12:24:53.361Z,100489.78
2024-02-13T12:28:58.809Z,100489.16
2024-02-13T12:33:08.313Z,100485.63
2024-02-13T12:37:16.398Z,100492.56
2024-02-13T12:41:19.272Z,100481.56
2024-02-13T12:45:22.506Z,100500.34
2024-02-13T12:49:25.078Z,100485.31
2024-02-13T12:53:28.113Z,100502.03
2024-02-13T12:57:32.101Z,100503.59
2024-02-13T13:01:39.177Z,100513.91
2024-02-13T13:05:44.893Z,100509.44
2024-02-13T13:09:48.044Z,100491.75
2024-02-13T13:13:50.925Z,100489.88
2024-02-13T13:17:55.381Z,100529.06
2024-02-13T13:21:59.208Z,100540.06
2024-02-13T13:26:02.405Z,100533.75
2024-02-13T13:30:05.747Z,100550.50
2024-02-13T13:34:10.547Z,100574.13
2024-02-13T13:38:21.223Z,100567.84
2024-02-13T13:42:23.404Z,100581.50
2024-02-13T13:46:26.883Z,100597.31
2024-02-13T13:50:29.080Z,100570.75
2024-02-13T13:54:31.193Z,100584.28
2024-02-13T13:58:33.605Z,100572.31
2024-02-13T14:02:39.600Z,100589.69
2024-02-13T14:06:41.852Z,100591.66
2024-02-13T14:10:46.183Z,100596.81
2024-02-13T14:14:48.518Z,100603.94
2024-02-13T14:18:50.799Z,100602.88
2024-02-13T14:22:55.316Z,100616.78
2024-02-13T14:26:57.648Z,100612.63
2024-02-13T14:30:59.937Z,100622.78
2024-02-13T14:35:03.071Z,100625.59
2024-02-13T14:39:05.390Z,100645.06
2024-02-13T14:43:08.658Z,100622.56
2024-02-13T14:47:11.088Z,100633.44
2024-02-13T14:51:19.405Z,100649.38
2024-02-13T14:55:21.928Z,100643.94
2024-02-13T14:59:26.539Z,100678.41
2024-02-13T15:03:29.035Z,100681.28
2024-02-13T15:07:31.495Z,100684.31
2024-02-13T15:11:34.535Z,100680.28
2024-02-13T15:15:37.344Z,100684.06
2024-02-13T15:19:41.543Z,100708.41
2024-02-13T15:23:45.006Z,100711.53
2024-02-13T15:27:47.196Z,100709.47
2024-02-13T15:31:49.686Z,100726.00
2024-02-13T15:36:06.095Z,100721.66
2024-02-13T15:40:27.962Z,100721.75
2024-02-13T15:44:48.769Z,100741.66
2024-02-13T15:48:53.199Z,100737.66
2024-02-13T15:52:56.472Z,100748.28
2024-02-13T15:56:59.189Z,100757.72
2024-02-13T16:01:02.776Z,100746.81
2024-02-13T16:05:05.466Z,100771.09
2024-02-13T16:09:07.651Z,100777.63
2024-02-13T16:13:11.480Z,100780.78
2024-02-13T16:17:13.585Z,100779.53
2024-02-13T16:21:15.819Z,100804.78
2024-02-13T16:25:19.801Z,100810.66
2024-02-13T16:29:24.528Z,100816.72
2024-02-13T16:33:26.896Z,100799.53
2024-02-13T16:37:32.311Z,100826.59
2024-02-13T16:41:34.476Z,100829.00
2024-02-13T16:45:36.995Z,100840.25
2024-02-13T16:49:39.222Z,100831.66
2024-02-13T16:53:42.388Z,100835.88
2024-02-13T16:57:46.199Z,100840.59
2024-02-13T17:01:48.258Z,100844.00
2024-02-13T17:05:51.625Z,100847.81
2024-02-13T17:09:53.743Z,100854.41
2024-02-13T17:13:55.907Z,100845.84
2024-02-13T17:17:58.669Z,100866.09
2024-02-13T17:22:00.850Z,100857.63
2024-02-13T17:26:03.157Z,100855.50
2024-02-13T17:30:08.842Z,100885.00
2024-02-13T17:34:11.225Z,100876.75
2024-02-13T17:38:13.839Z,100890.66
2024-02-13T17:42:16.825Z,100888.44
2024-02-13T17:46:18.971Z,100887.63
2024-02-13T17:50:21.550Z,100896.41
2024-02-13T17:54:29.211Z,100884.75
2024-02-13T17:58:35.312Z,100890.91
2024-02-13T18:02:40.654Z,100894.53
2024-02-13T18:06:43.723Z,100892.63
2024-02-13T18:10:45.872Z,100900.91
2024-02-13T18:14:48.141Z,100907.16
2024-02-13T18:18:50.963Z,100906.84
2024-02-13T18:22:55.250Z,100901.66
2024-02-13T18:26:58.036Z,100906.66
2024-02-13T18:31:00.312Z,100913.56
2024-02-13T18:35:02.599Z,100918.75
2024-02-13T18:39:04.767Z,100900.31
2024-02-13T18:43:06.909Z,100912.63
2024-02-13T18:47:11.272Z,100933.13
2024-02-13T18:51:15.731Z,100927.06
2024-02-13T18:55:18.631Z,100932.47
2024-02-13T18:59:21.172Z,100934.16
2024-02-13T19:03:23.622Z,100940.97
2024-02-13T19:07:25.739Z,100924.09
2024-02-13T19:11:28.234Z,100936.81
2024-02-13T19:15:30.421Z,100937.00
2024-02-13T19:19:33.604Z,100947.88
2024-02-13T19:23:35.744Z,100945.44
2024-02-13T19:27:38.558Z,100962.22
2024-02-13T19:31:42.411Z,100959.22
2024-02-13T19:35:46.195Z,100955.72
2024-02-13T19:39:48.768Z,100967.19
2024-02-13T19:43:51.780Z,100974.31
2024-02-13T19:47:54.135Z,100971.84
2024-02-13T19:51:57.143Z,100990.88
2024-02-13T19:55:59.509Z,100992.13
2024-02-13T20:00:04.145Z,100988.31
2024-02-13T20:04:07.384Z,100975.50
2024-02-13T20:08:10.848Z,100990.25
2024-02-13T20:12:13.036Z,100991.81
2024-02-13T20:16:15.133Z,100980.91
2024-02-13T20:20:17.989Z,101001.28
2024-02-13T20:24:20.187Z,100992.91
2024-02-13T20:28:22.296Z,101000.53
2024-02-13T20:32:25.680Z,100993.84
2024-02-13T20:36:27.860Z,100986.13
2024-02-13T20:40:30.617Z,101002.44
2024-02-13T20:44:32.814Z,100976.75
2024-02-13T20:48:35.136Z,101003.28
2024-02-13T20:52:38.146Z,101010.50
2024-02-13T20:56:40.771Z,101007.84
2024-02-13T21:00:44.821Z,101007.84
2024-02-13T21:04:48.722Z,101009.88
2024-02-13T21:08:52.572Z,101009.66
2024-02-13T21:12:58.178Z,101023.47
2024-02-13T21:17:00.278Z,101025.91
2024-02-13T21:21:21.448Z,101020.41
2024-02-13T21:25:24.670Z,101021.03
2024-02-13T21:29:27.692Z,101032.94
2024-02-13T21:33:30.061Z,101030.59
2024-02-13T21:37:33.594Z,101039.00
2024-02-13T21:41:36.608Z,101056.22
2024-02-13T21:45:38.944Z,101050.91
2024-02-13T21:49:41.213Z,101031.78
2024-02-13T21:53:48.581Z,101055.22
2024-02-13T21:57:50.740Z,101039.63
2024-02-13T22:01:52.873Z,101043.34
2024-02-13T22:05:55.278Z,101039.97
2024-02-13T22:09:57.733Z,101044.53
2024-02-13T22:14:01.905Z,101065.09
2024-02-13T22:18:04.192Z,101057.44
2024-02-13T22:22:06.456Z,101051.50
2024-02-13T22:26:08.569Z,101078.09
2024-02-13T22:30:13.741Z,101069.59
2024-02-13T22:34:16.191Z,101068.84
2024-02-13T22:38:18.469Z,101082.22
2024-02-13T22:42:20.584Z,101088.88
2024-02-13T22:46:26.094Z,101073.91
2024-02-13T22:50:29.703Z,101085.09
2024-02-13T22:54:32.621Z,101083.06
2024-02-13T22:58:34.739Z,101081.66
2024-02-13T23:02:37.235Z,101085.72
2024-02-13T23:06:43.009Z,101065.63
2024-02-13T23:10:45.220Z,101092.63
2024-02-13T23:14:47.379Z,101083.72
2024-02-13T23:18:50.316Z,101094.84
2024-02-13T23:22:52.669Z,101094.53
2024-02-13T23:26:54.871Z,101086.66
2024-02-13T23:30:56.967Z,101092.19
2024-02-13T23:34:59.104Z,101095.06
2024-02-13T23:39:01.935Z,101103.09
2024-02-13T23:43:06.916Z,101117.38
2024-02-13T23:47:09.144Z,101109.81
2024-02-13T23:51:11.457Z,101121.91
2024-02-13T23:55:14.627Z,101119.56
2024-02-13T23:59:16.704Z,101126.91
